createdAt,value
2017-05-24T00:02:02.000Z,23.92
2017-05-24T00:22:02.000Z,23.81
2017-05-24T00:42:02.000Z,23.72
2017-05-24T00:52:03.000Z,23.67
2017-05-24T01:02:02.000Z,23.63
2017-05-24T01:12:02.000Z,23.58
2017-05-24T01:22:03.000Z,23.53
2017-05-24T01:42:02.000Z,23.45
2017-05-24T02:02:02.000Z,23.365
2017-05-24T02:12:02.000Z,23.34
2017-05-24T02:22:02.000Z,23.29
2017-05-24T02:42:03.000Z,23.22
2017-05-24T03:02:03.000Z,23.13
2017-05-24T03:12:03.000Z,23.1
2017-05-24T03:22:03.000Z,23.06
2017-05-24T03:42:03.000Z,23.01
2017-05-24T04:02:03.000Z,22.95
2017-05-24T04:12:03.000Z,22.93
2017-05-24T04:22:03.000Z,22.9
2017-05-24T04:42:03.000Z,22.87
2017-05-24T05:02:03.000Z,22.85
2017-05-24T05:12:03.000Z,22.85
2017-05-24T05:22:03.000Z,22.85
2017-05-24T05:42:03.000Z,22.95
2017-05-24T06:02:03.000Z,23.13
2017-05-24T06:12:03.000Z,23.22
2017-05-24T06:22:03.000Z,23.27
2017-05-24T06:42:03.000Z,23.19
2017-05-24T07:02:03.000Z,23.22
2017-05-24T07:12:03.000Z,23.19
2017-05-24T07:22:03.000Z,23.25
2017-05-24T07:42:03.000Z,23.26
2017-05-24T08:02:03.000Z,23.45
2017-05-24T08:12:03.000Z,23.46
2017-05-24T08:22:03.000Z,23.53
2017-05-24T08:42:03.000Z,23.65
2017-05-24T09:02:06.000Z,23.64
2017-05-24T09:12:03.000Z,23.72
2017-05-24T09:22:03.000Z,23.84
2017-05-24T09:42:03.000Z,23.95
2017-05-24T10:02:03.000Z,24
2017-05-24T10:12:03.000Z,24.12
2017-05-24T10:22:03.000Z,24.11
2017-05-24T10:42:04.000Z,24.2
2017-05-24T11:02:04.000Z,24.35
2017-05-24T11:12:04.000Z,24.35
2017-05-24T11:22:04.000Z,24.39
2017-05-24T11:42:04.000Z,24.47
2017-05-24T12:02:04.000Z,24.5
2017-05-24T12:22:04.000Z,24.65
2017-05-24T12:32:04.000Z,24.7
2017-05-24T12:42:04.000Z,24.64
2017-05-24T13:02:04.000Z,24.57
2017-05-24T13:22:04.000Z,24.44
2017-05-24T13:32:04.000Z,24.41
2017-05-24T13:42:04.000Z,24.42
2017-05-24T14:02:04.000Z,24.44
2017-05-24T14:22:04.000Z,24.6
2017-05-24T14:32:04.000Z,24.63
2017-05-24T14:42:04.000Z,24.59
2017-05-24T15:02:04.000Z,24.59
2017-05-24T15:22:04.000Z,24.61
2017-05-24T15:32:04.000Z,24.65
2017-05-24T15:42:04.000Z,24.62
2017-05-24T16:02:04.000Z,24.67
2017-05-24T16:22:04.000Z,24.64
2017-05-24T16:32:04.000Z,24.64
2017-05-24T16:42:04.000Z,24.54
2017-05-24T17:02:04.000Z,24.69
2017-05-24T17:22:04.000Z,24.66
2017-05-24T17:32:04.000Z,24.67
2017-05-24T17:42:04.000Z,24.71
2017-05-24T18:02:04.000Z,24.69
2017-05-24T18:22:04.000Z,24.62
2017-05-24T18:32:04.000Z,24.57
2017-05-24T18:42:04.000Z,24.57
2017-05-24T19:02:05.000Z,24.49
2017-05-24T19:22:05.000Z,24.41
2017-05-24T19:42:05.000Z,24.32
2017-05-24T19:52:07.000Z,24.29
2017-05-24T20:02:05.000Z,24.24
2017-05-24T20:42:05.000Z,24.1
2017-05-24T20:52:05.000Z,24.06
2017-05-24T21:02:05.000Z,24.04
2017-05-24T21:22:05.000Z,23.94
2017-05-24T21:42:05.000Z,23.92
2017-05-24T21:52:05.000Z,23.9
2017-05-24T22:02:05.000Z,23.87
2017-05-24T22:22:05.000Z,23.83
2017-05-24T22:42:05.000Z,23.73
2017-05-24T22:52:05.000Z,23.69
2017-05-24T23:02:05.000Z,23.64
2017-05-24T23:22:05.000Z,23.56
2017-05-24T23:42:05.000Z,23.46
2017-05-24T23:52:05.000Z,23.42
